Time;durP1;ratioP1;P1;durP2;ratioP2;P2;SDS_P1;SDS_P2;PMS_P1;PMS_P2;Temp;Humidity;BMP_temperature;BMP_pressure;BME280_temperature;BME280_humidity;BME280_pressure;Samples;Min_cycle;Max_cycle;Signal;HPM_P1;HPM_P2
2022/01/29 00:01:32;;;;;;;12.07;11.30;;;;;;;1.17;60.17;93204.47;5051432;28;20229;-75
2022/01/29 00:03:57;;;;;;;11.77;10.90;;;;;;;1.07;60.26;93196.44;5051967;28;20249;-75
2022/01/29 00:06:23;;;;;;;12.07;10.93;;;;;;;1.09;60.83;93201.38;5053027;28;20197;-75
2022/01/29 00:08:49;;;;;;;14.03;12.73;;;;;;;1.04;61.17;93198.63;5051722;28;20253;-75
2022/01/29 00:11:16;;;;;;;13.80;12.50;;;;;;;1.12;61.25;93196.59;5052318;28;20210;-75
2022/01/29 00:13:42;;;;;;;10.97;10.13;;;;;;;1.26;61.30;93205.03;5051715;28;20201;-75
2022/01/29 00:16:08;;;;;;;12.53;11.53;;;;;;;1.05;64.73;93177.84;5051347;28;20190;-75
2022/01/29 00:18:34;;;;;;;13.73;12.83;;;;;;;1.13;62.40;93200.75;5052013;28;20222;-75
2022/01/29 00:21:00;;;;;;;14.17;11.27;;;;;;;1.07;62.60;93204.16;5052191;28;20200;-75
2022/01/29 00:23:26;;;;;;;12.67;11.67;;;;;;;1.06;62.37;93192.28;5053314;28;20190;-75
2022/01/29 00:25:51;;;;;;;13.27;12.27;;;;;;;1.04;62.74;93199.41;5052469;28;20222;-74
2022/01/29 00:28:17;;;;;;;13.60;12.30;;;;;;;1.08;63.29;93202.34;5050433;28;20196;-75
2022/01/29 00:30:44;;;;;;;13.67;12.57;;;;;;;1.13;64.37;93211.03;5050386;28;20221;-75
2022/01/29 00:33:11;;;;;;;12.60;11.67;;;;;;;0.99;64.18;93204.41;5052297;28;20174;-75
2022/01/29 00:35:37;;;;;;;14.10;13.13;;;;;;;1.04;64.55;93212.25;5052288;28;20218;-75
2022/01/29 00:38:04;;;;;;;13.77;12.67;;;;;;;1.09;63.61;93197.00;5052422;28;20182;-75
2022/01/29 00:40:31;;;;;;;12.57;11.77;;;;;;;1.08;64.03;93205.72;5051989;28;20251;-75
2022/01/29 00:42:57;;;;;;;12.73;11.83;;;;;;;0.93;64.68;93171.81;5053267;28;20190;-75
2022/01/29 00:45:23;;;;;;;12.90;11.70;;;;;;;1.00;64.59;93185.41;5052765;28;20234;-75
2022/01/29 00:47:48;;;;;;;13.37;12.47;;;;;;;1.08;66.23;93195.44;5051920;28;20537;-75
2022/01/29 00:50:14;;;;;;;13.53;12.63;;;;;;;0.87;65.30;93177.75;5051941;28;20269;-74
2022/01/29 00:52:39;;;;;;;14.17;13.17;;;;;;;0.82;65.40;93175.03;5052347;28;20186;-75
2022/01/29 00:55:07;;;;;;;13.57;12.73;;;;;;;0.88;65.49;93193.97;5051169;28;20222;-75
2022/01/29 00:57:33;;;;;;;12.87;11.97;;;;;;;0.82;65.58;93180.16;5052231;28;20224;-75
2022/01/29 00:59:59;;;;;;;14.47;13.37;;;;;;;0.75;66.39;93169.13;5051793;28;20234;-75
2022/01/29 01:02:24;;;;;;;13.77;12.87;;;;;;;0.82;65.79;93176.81;5050136;28;20198;-75
2022/01/29 01:04:50;;;;;;;13.37;12.67;;;;;;;1.00;66.13;93193.09;5049877;28;20206;-75
2022/01/29 01:07:15;;;;;;;13.00;12.10;;;;;;;0.94;65.89;93195.72;5050891;28;20211;-75
2022/01/29 01:09:41;;;;;;;14.03;13.13;;;;;;;0.96;65.26;93199.66;5049752;28;20331;-75
2022/01/29 01:12:07;;;;;;;13.33;12.17;;;;;;;0.93;65.65;93189.81;5050413;28;20253;-75
2022/01/29 01:14:33;;;;;;;11.73;11.03;;;;;;;0.96;65.41;93198.88;5049691;28;20217;-75
2022/01/29 01:16:59;;;;;;;12.77;11.80;;;;;;;0.89;65.26;93186.03;5050782;28;20193;-75
2022/01/29 01:19:26;;;;;;;14.13;13.23;;;;;;;0.94;64.68;93193.94;5050848;28;20257;-75
2022/01/29 01:21:56;;;;;;;13.70;12.70;;;;;;;0.97;64.82;93183.25;5050440;28;20224;-75
2022/01/29 01:24:23;;;;;;;11.80;10.73;;;;;;;0.94;65.44;93186.22;5050697;28;20248;-75
2022/01/29 01:26:49;;;;;;;11.43;10.70;;;;;;;1.04;64.31;93185.78;5050509;28;20194;-75
2022/01/29 01:29:15;;;;;;;12.30;11.57;;;;;;;0.86;65.00;93171.03;5050800;28;20233;-75
2022/01/29 01:31:43;;;;;;;13.40;12.60;;;;;;;0.91;64.94;93181.50;5050802;28;20178;-75
2022/01/29 01:34:09;;;;;;;11.93;11.13;;;;;;;0.76;64.79;93155.31;5047902;28;20244;-75
2022/01/29 01:36:41;;;;;;;12.80;11.90;;;;;;;0.94;65.70;93170.00;5050619;28;20245;-75
2022/01/29 01:39:09;;;;;;;12.10;11.40;;;;;;;0.79;66.99;93172.88;5049839;28;20244;-75
2022/01/29 01:41:40;;;;;;;12.20;11.10;;;;;;;0.76;66.41;93155.31;5049710;28;20179;-75
2022/01/29 01:44:10;;;;;;;12.17;11.53;;;;;;;0.81;66.22;93178.56;5049854;28;20281;-75
2022/01/29 01:46:36;;;;;;;12.50;11.70;;;;;;;0.60;66.78;93157.53;5051025;28;20194;-75
2022/01/29 01:49:01;;;;;;;13.43;12.53;;;;;;;0.66;67.29;93170.34;5048872;28;20303;-79
2022/01/29 01:51:27;;;;;;;13.27;12.07;;;;;;;0.46;67.70;93149.13;5049372;28;20224;-78
2022/01/29 01:53:52;;;;;;;13.13;12.10;;;;;;;0.81;67.51;93196.56;5049782;28;20245;-76
2022/01/29 01:56:18;;;;;;;13.33;12.53;;;;;;;0.74;68.37;93187.31;5050493;28;20794;-78
2022/01/29 01:58:43;;;;;;;13.17;12.17;;;;;;;0.65;67.89;93166.22;5049053;28;20225;-77
2022/01/29 02:01:09;;;;;;;12.77;11.80;;;;;;;0.72;68.40;93187.53;5049831;28;20253;-77
2022/01/29 02:03:34;;;;;;;11.93;11.23;;;;;;;0.71;67.64;93178.25;5049785;28;20190;-77
2022/01/29 02:06:01;;;;;;;12.63;11.53;;;;;;;0.76;67.60;93175.06;5049684;28;20205;-78
2022/01/29 02:08:26;;;;;;;13.27;12.40;;;;;;;0.69;68.05;93166.56;5049026;28;20190;-80
2022/01/29 02:10:52;;;;;;;13.33;12.13;;;;;;;0.53;68.25;93149.84;5049715;28;20225;-76
2022/01/29 02:13:18;;;;;;;14.63;13.53;;;;;;;0.58;68.06;93172.34;5050873;28;20320;-76
2022/01/29 02:15:43;;;;;;;12.57;11.67;;;;;;;0.65;67.67;93183.41;5049824;28;20218;-75
2022/01/29 02:18:15;;;;;;;13.30;12.40;;;;;;;0.46;68.49;93153.47;5050126;28;20270;-76
2022/01/29 02:20:43;;;;;;;15.80;14.60;;;;;;;0.60;68.65;93178.09;5047400;28;20230;-76
2022/01/29 02:23:09;;;;;;;13.30;12.50;;;;;;;0.65;68.04;93188.53;5049211;28;20257;-77
2022/01/29 02:25:40;;;;;;;13.23;12.17;;;;;;;0.73;67.96;93185.75;5049427;28;20222;-76
2022/01/29 02:28:10;;;;;;;14.00;12.80;;;;;;;0.87;69.95;93197.53;5049087;28;20262;-77
2022/01/29 02:30:38;;;;;;;13.73;12.63;;;;;;;0.78;67.56;93184.13;5049824;28;20252;-76
2022/01/29 02:33:07;;;;;;;12.30;11.60;;;;;;;0.76;67.93;93201.56;5049241;28;20182;-76
2022/01/29 02:35:37;;;;;;;14.63;13.33;;;;;;;0.70;68.90;93197.19;5050013;28;20221;-76
2022/01/29 02:38:03;;;;;;;14.90;13.63;;;;;;;0.76;68.44;93201.56;5049290;28;20189;-77
2022/01/29 02:40:34;;;;;;;14.03;12.93;;;;;;;0.44;69.07;93155.44;5049220;28;20233;-76
2022/01/29 02:43:09;;;;;;;14.37;13.20;;;;;;;0.70;67.64;93206.72;5050027;28;20197;-76
2022/01/29 02:45:35;;;;;;;13.53;12.63;;;;;;;0.43;67.81;93149.53;5049981;28;20217;-75
2022/01/29 02:48:00;;;;;;;13.37;12.37;;;;;;;0.71;68.90;93203.13;5049112;28;20225;-76
2022/01/29 02:50:26;;;;;;;12.80;11.73;;;;;;;0.69;67.09;93216.19;5050439;28;20224;-76
2022/01/29 02:52:51;;;;;;;12.20;11.33;;;;;;;0.56;67.01;93174.38;5049197;28;20194;-76
2022/01/29 02:55:16;;;;;;;13.43;12.63;;;;;;;0.90;65.49;93202.28;5049052;28;20234;-75
2022/01/29 02:57:42;;;;;;;13.73;12.63;;;;;;;0.83;64.97;93209.22;5049604;28;20186;-74
2022/01/29 03:00:10;;;;;;;13.47;12.70;;;;;;;0.64;65.16;93187.75;5048582;28;20260;-76
2022/01/29 03:02:36;;;;;;;11.70;11.07;;;;;;;0.85;67.86;93190.03;5049468;28;20186;-75
2022/01/29 03:05:02;;;;;;;12.87;11.93;;;;;;;0.76;64.17;93209.25;5049042;28;20229;-75
2022/01/29 03:07:27;;;;;;;13.07;12.27;;;;;;;0.74;63.50;93205.31;5062626;28;20182;-75
2022/01/29 03:09:53;;;;;;;11.80;11.20;;;;;;;0.44;64.22;93170.84;5048713;28;20341;-75
2022/01/29 03:12:18;;;;;;;12.27;11.53;;;;;;;0.17;63.90;93115.47;5049288;28;20201;-75
2022/01/29 03:14:44;;;;;;;11.73;11.03;;;;;;;0.62;63.88;93204.38;5048075;28;20230;-75
2022/01/29 03:17:10;;;;;;;12.53;11.53;;;;;;;0.66;64.40;93201.19;5053365;28;20208;-75
2022/01/29 03:19:35;;;;;;;11.27;10.77;;;;;;;0.62;64.36;93212.06;5052455;28;20654;-75
2022/01/29 03:22:01;;;;;;;12.53;11.63;;;;;;;0.69;63.56;93211.06;5052825;28;20201;-76
2022/01/29 03:24:26;;;;;;;11.93;11.33;;;;;;;0.53;63.66;93201.22;5052980;28;20240;-75
2022/01/29 03:26:52;;;;;;;13.87;13.00;;;;;;;0.62;63.39;93194.91;5052796;28;20210;-76
2022/01/29 03:29:17;;;;;;;11.60;11.00;;;;;;;0.46;64.01;93174.00;5052316;28;20230;-75
2022/01/29 03:31:43;;;;;;;12.10;11.07;;;;;;;0.67;64.66;93191.72;5052110;28;20213;-76
2022/01/29 03:34:08;;;;;;;11.00;10.43;;;;;;;0.63;63.71;93191.31;5052335;28;20266;-75
2022/01/29 03:36:33;;;;;;;12.17;11.47;;;;;;;0.55;64.38;93172.78;5053180;28;20198;-76
2022/01/29 03:39:00;;;;;;;11.43;10.67;;;;;;;0.60;64.44;93196.88;5052006;28;20313;-76
2022/01/29 03:41:26;;;;;;;11.27;10.77;;;;;;;0.58;63.46;93190.34;5052512;28;20194;-75
2022/01/29 03:43:53;;;;;;;11.07;10.47;;;;;;;0.60;64.16;93180.66;5051450;28;20264;-75
2022/01/29 03:46:19;;;;;;;11.20;10.73;;;;;;;0.62;64.63;93199.22;5051674;28;20182;-75
2022/01/29 03:48:44;;;;;;;12.60;11.60;;;;;;;0.52;65.46;93199.66;5049749;28;20927;-75
2022/01/29 03:51:10;;;;;;;11.97;11.23;;;;;;;0.41;64.49;93174.63;5051151;28;20936;-75
2022/01/29 03:53:35;;;;;;;12.27;11.17;;;;;;;0.62;64.88;93182.06;5050776;28;20190;-75
2022/01/29 03:56:01;;;;;;;12.83;12.07;;;;;;;0.55;65.03;93188.19;5052429;28;20186;-75
2022/01/29 03:58:26;;;;;;;11.47;10.87;;;;;;;0.59;65.84;93189.38;5050723;28;20253;-75
2022/01/29 04:00:52;;;;;;;12.87;12.17;;;;;;;0.53;65.96;93185.81;5050944;28;20322;-75
2022/01/29 04:03:17;;;;;;;11.90;11.30;;;;;;;0.63;66.51;93178.47;5050375;28;20225;-75
2022/01/29 04:05:42;;;;;;;12.43;11.83;;;;;;;0.62;66.49;93179.47;5050971;28;20254;-75
2022/01/29 04:08:15;;;;;;;13.27;12.37;;;;;;;0.47;66.02;93181.50;5050719;28;20194;-75
2022/01/29 04:10:41;;;;;;;13.10;12.50;;;;;;;0.58;65.55;93201.41;5049937;28;20230;-75
2022/01/29 04:13:09;;;;;;;12.13;11.43;;;;;;;0.56;65.58;93198.25;5050779;28;20246;-75
2022/01/29 04:15:34;;;;;;;11.63;10.97;;;;;;;0.33;65.95;93156.88;5052281;28;20233;-76
2022/01/29 04:18:00;;;;;;;11.43;10.83;;;;;;;0.59;64.52;93172.16;5051749;28;20224;-75
2022/01/29 04:20:25;;;;;;;11.87;11.27;;;;;;;0.64;69.06;93159.50;5051260;28;20253;-76
2022/01/29 04:22:50;;;;;;;10.50;9.90;;;;;;;0.61;63.96;93179.69;5051671;28;20186;-76
2022/01/29 04:25:16;;;;;;;11.10;10.60;;;;;;;0.48;64.33;93154.84;5048856;28;20268;-75
2022/01/29 04:27:45;;;;;;;10.73;10.13;;;;;;;0.53;64.26;93169.63;5049711;28;20204;-75
2022/01/29 04:30:26;;;;;;;11.93;11.33;;;;;;;0.71;63.95;93193.66;5050442;28;20218;-75
2022/01/29 04:35:17;;;;;;;11.80;11.20;;;;;;;0.64;64.81;93185.19;5050921;28;20226;-75
2022/01/29 04:37:43;;;;;;;12.23;11.67;;;;;;;0.78;63.47;93189.25;5051150;28;20204;-75
2022/01/29 04:40:09;;;;;;;10.83;10.23;;;;;;;0.92;65.16;93190.78;5051266;28;20218;-74
2022/01/29 04:42:34;;;;;;;11.63;11.10;;;;;;;0.94;66.15;93190.56;5051636;28;20193;-75
2022/01/29 04:45:00;;;;;;;11.20;10.50;;;;;;;0.95;66.61;93161.31;5050661;28;21048;-76
2022/01/29 04:47:26;;;;;;;11.53;10.93;;;;;;;0.67;64.35;93187.34;5051790;28;20608;-75
2022/01/29 04:49:51;;;;;;;12.77;12.07;;;;;;;0.49;64.28;93165.88;5050569;28;20252;-75
2022/01/29 04:52:16;;;;;;;10.97;10.37;;;;;;;0.58;64.79;93192.91;5051389;28;20190;-75
2022/01/29 04:54:42;;;;;;;10.97;10.37;;;;;;;0.74;64.75;93198.38;5051132;28;20228;-76
2022/01/29 04:57:07;;;;;;;11.70;10.87;;;;;;;0.50;64.16;93167.47;5051275;28;20258;-76
2022/01/29 04:59:33;;;;;;;11.70;11.07;;;;;;;0.44;65.12;93171.63;5051166;28;20249;-76
2022/01/29 05:01:58;;;;;;;11.37;10.73;;;;;;;0.61;68.67;93188.16;5051441;28;20193;-75
2022/01/29 05:04:24;;;;;;;12.10;11.40;;;;;;;0.51;64.83;93195.53;5050556;28;20286;-76
2022/01/29 05:06:49;;;;;;;12.37;11.67;;;;;;;0.40;65.43;93169.69;5050761;28;20189;-76
2022/01/29 05:09:15;;;;;;;12.93;12.13;;;;;;;0.36;65.84;93179.56;5050894;28;20246;-76
2022/01/29 05:11:44;;;;;;;13.83;13.03;;;;;;;0.54;66.75;93197.69;5049740;28;20261;-76
2022/01/29 05:14:17;;;;;;;12.20;11.53;;;;;;;0.60;67.10;93201.22;5049883;28;20938;-75
2022/01/29 05:17:17;;;;;;;12.33;11.63;;;;;;;0.44;67.04;93210.16;5051207;28;20209;-78
2022/01/29 05:27:48;;;;;;;14.20;13.43;;;;;;;0.26;69.53;93204.88;5050343;28;20204;-75
2022/01/29 05:30:13;;;;;;;12.83;12.03;;;;;;;0.14;70.28;93191.06;5050392;28;20229;-74
2022/01/29 05:32:39;;;;;;;12.23;11.53;;;;;;;0.35;69.31;93203.66;5050766;28;20206;-75
2022/01/29 05:35:05;;;;;;;12.27;11.40;;;;;;;0.31;69.52;93207.66;5049362;28;20285;-74
2022/01/29 05:37:30;;;;;;;12.13;11.43;;;;;;;0.32;69.82;93205.84;5050555;28;20204;-74
2022/01/29 05:39:56;;;;;;;14.13;13.17;;;;;;;0.28;69.76;93208.03;5048377;28;20218;-76
2022/01/29 05:42:21;;;;;;;13.53;12.57;;;;;;;-0.01;70.23;93187.97;5050186;28;20190;-75
2022/01/29 05:44:47;;;;;;;13.50;12.20;;;;;;;0.20;70.25;93223.66;5050169;28;20222;-75
2022/01/29 05:47:12;;;;;;;14.00;13.00;;;;;;;0.21;70.34;93239.84;5049845;28;20205;-76
2022/01/29 05:49:37;;;;;;;13.20;12.40;;;;;;;0.19;69.92;93232.34;5049882;28;20225;-75
2022/01/29 05:52:03;;;;;;;13.27;12.47;;;;;;;0.26;70.25;93240.84;5047332;28;20186;-75
2022/01/29 05:54:29;;;;;;;14.90;13.57;;;;;;;0.36;69.56;93236.06;5047111;28;20256;-80
2022/01/29 05:56:54;;;;;;;14.03;13.23;;;;;;;0.33;69.10;93236.47;5048153;28;20215;-82
2022/01/29 05:59:19;;;;;;;12.53;11.77;;;;;;;0.16;70.97;93214.78;5045599;28;20245;-83
2022/01/29 06:01:45;;;;;;;13.60;12.67;;;;;;;0.08;69.26;93207.28;5048488;28;20258;-82
2022/01/29 06:04:10;;;;;;;15.57;14.67;;;;;;;0.17;69.84;93239.47;5047935;28;21075;-78
2022/01/29 06:06:36;;;;;;;13.63;12.83;;;;;;;0.22;69.78;93244.78;5048930;28;21942;-81
2022/01/29 06:09:04;;;;;;;12.97;11.93;;;;;;;0.29;69.65;93245.56;5048804;28;21073;-85
2022/01/29 06:11:33;;;;;;;14.03;13.03;;;;;;;0.40;69.88;93273.19;5046407;28;20198;-81
2022/01/29 06:13:59;;;;;;;15.90;14.93;;;;;;;0.49;70.37;93274.56;5045181;28;20226;-76
2022/01/29 06:16:25;;;;;;;12.80;11.97;;;;;;;0.20;69.72;93243.41;5047754;28;20190;-84
2022/01/29 06:18:51;;;;;;;12.43;11.93;;;;;;;0.00;69.79;93215.22;5045923;28;20174;-83
2022/01/29 06:21:16;;;;;;;12.63;11.90;;;;;;;0.38;69.26;93269.22;5047870;28;20284;-81
2022/01/29 06:23:43;;;;;;;14.03;13.27;;;;;;;0.00;69.95;93231.38;5046456;28;20261;-83
2022/01/29 06:26:11;;;;;;;12.00;11.40;;;;;;;0.40;69.68;93268.06;5048137;28;20190;-79
2022/01/29 06:28:37;;;;;;;13.63;12.43;;;;;;;0.58;69.89;93270.75;5047699;28;20186;-79
2022/01/29 06:31:03;;;;;;;12.27;11.57;;;;;;;0.50;71.75;93273.53;5045897;28;20204;-77
2022/01/29 06:33:29;;;;;;;11.20;10.60;;;;;;;0.41;68.45;93285.03;5048902;28;20241;-77
2022/01/29 06:35:55;;;;;;;13.27;12.57;;;;;;;0.40;68.22;93270.63;5047041;28;20237;-75
2022/01/29 06:38:21;;;;;;;12.57;11.80;;;;;;;0.51;68.48;93276.91;5049092;28;20194;-74
2022/01/29 06:40:47;;;;;;;12.57;11.77;;;;;;;0.42;68.25;93257.59;5045974;28;20233;-75
2022/01/29 06:43:13;;;;;;;13.67;12.77;;;;;;;0.50;68.56;93272.78;5048320;28;20197;-79
2022/01/29 06:45:40;;;;;;;12.93;12.20;;;;;;;0.39;68.45;93260.56;5048290;28;20226;-76
2022/01/29 06:48:06;;;;;;;13.17;12.47;;;;;;;0.63;67.28;93281.22;5048047;28;20194;-75
2022/01/29 06:50:33;;;;;;;12.10;11.40;;;;;;;0.47;67.67;93253.41;5048355;28;20297;-76
2022/01/29 06:52:59;;;;;;;12.63;12.00;;;;;;;0.61;67.89;93285.78;5048292;28;20194;-79
2022/01/29 06:55:24;;;;;;;13.27;12.00;;;;;;;0.52;68.14;93284.41;5048760;28;20240;-80
2022/01/29 06:57:50;;;;;;;14.40;13.30;;;;;;;0.57;69.50;93276.91;5049248;28;20186;-78
2022/01/29 07:00:16;;;;;;;13.33;12.33;;;;;;;0.97;68.12;93296.34;5048732;28;20233;-84
2022/01/29 07:02:43;;;;;;;13.57;12.50;;;;;;;0.95;67.93;93280.31;5049203;28;20273;-80
2022/01/29 07:05:10;;;;;;;14.00;13.00;;;;;;;0.91;66.83;93304.88;5047996;28;20224;-82
2022/01/29 07:07:35;;;;;;;13.73;12.73;;;;;;;0.87;67.88;93305.47;5047176;28;20189;-79
2022/01/29 07:10:02;;;;;;;13.90;12.87;;;;;;;1.40;66.26;93301.69;5047511;28;20213;-76
2022/01/29 07:12:28;;;;;;;12.93;11.93;;;;;;;1.00;65.99;93279.69;5047732;28;20186;-75
2022/01/29 07:14:53;;;;;;;15.33;14.03;;;;;;;1.03;66.49;93295.50;5027708;28;20229;-75
2022/01/29 07:17:22;;;;;;;13.27;12.47;;;;;;;0.87;68.19;93290.81;5048246;28;20244;-73
2022/01/29 07:19:50;;;;;;;14.83;13.73;;;;;;;1.15;67.67;93306.72;5046210;28;20641;-76
2022/01/29 07:22:15;;;;;;;15.77;14.53;;;;;;;1.36;66.75;93327.03;5048810;28;20194;-75
2022/01/29 07:24:41;;;;;;;14.57;13.47;;;;;;;1.31;66.70;93324.28;5045462;28;20226;-74
2022/01/29 07:27:07;;;;;;;13.60;12.60;;;;;;;1.14;66.32;93309.50;5047014;28;20177;-74
2022/01/29 07:29:33;;;;;;;15.03;13.80;;;;;;;1.26;66.84;93321.53;5045850;28;20241;-76
2022/01/29 07:32:00;;;;;;;16.63;15.33;;;;;;;1.31;66.75;93314.00;5044660;28;20187;-76
2022/01/29 07:34:26;;;;;;;14.77;13.77;;;;;;;1.78;65.38;93315.31;5046528;28;20241;-75
2022/01/29 07:36:52;;;;;;;13.80;12.90;;;;;;;1.31;65.90;93314.00;5046450;28;20190;-77
2022/01/29 07:39:19;;;;;;;16.17;14.73;;;;;;;1.25;66.90;93278.81;5045840;28;20233;-76
2022/01/29 07:41:45;;;;;;;14.77;13.77;;;;;;;1.29;67.69;93326.25;5047369;28;20214;-75
2022/01/29 07:44:10;;;;;;;17.03;15.43;;;;;;;1.53;66.07;93324.75;5046673;28;20233;-77
2022/01/29 07:46:36;;;;;;;15.90;14.60;;;;;;;1.21;66.59;93315.44;5048085;28;20194;-77
2022/01/29 07:49:01;;;;;;;15.40;13.93;;;;;;;1.65;66.93;93339.31;5046865;28;20222;-77
2022/01/29 07:51:26;;;;;;;15.13;13.83;;;;;;;1.20;66.82;93329.25;5047297;28;20178;-77
2022/01/29 07:53:52;;;;;;;14.30;13.20;;;;;;;1.29;67.42;93336.53;5047547;28;20248;-77
2022/01/29 07:56:20;;;;;;;13.83;12.83;;;;;;;1.45;69.34;93325.00;5047125;28;20266;-76
2022/01/29 07:58:46;;;;;;;14.63;13.43;;;;;;;1.13;67.68;93337.03;5045481;28;20261;-77
2022/01/29 08:01:13;;;;;;;15.77;14.47;;;;;;;1.14;68.17;93317.22;5046385;28;20201;-77
2022/01/29 08:03:38;;;;;;;14.43;13.20;;;;;;;1.26;67.90;93346.47;5050587;28;20182;-77
2022/01/29 08:06:04;;;;;;;14.97;13.70;;;;;;;1.39;67.02;93365.19;5050556;28;20204;-76
2022/01/29 08:08:29;;;;;;;14.70;13.60;;;;;;;1.48;67.78;93353.66;5050890;28;20204;-77
2022/01/29 08:10:55;;;;;;;14.53;13.57;;;;;;;1.11;69.11;93354.41;5048867;28;20237;-76
2022/01/29 08:13:20;;;;;;;14.10;12.90;;;;;;;1.11;67.96;93359.56;5051113;28;20194;-75
2022/01/29 08:15:46;;;;;;;13.87;12.70;;;;;;;1.06;67.10;93320.03;5049046;28;20344;-75
2022/01/29 08:18:11;;;;;;;13.43;12.37;;;;;;;1.34;68.05;93359.06;5051372;28;20236;-75
2022/01/29 08:20:36;;;;;;;14.67;13.77;;;;;;;1.45;68.92;93319.84;5050636;28;20226;-75
2022/01/29 08:23:09;;;;;;;13.27;12.27;;;;;;;1.82;66.18;93341.41;5047323;28;20187;-75
2022/01/29 08:25:36;;;;;;;14.57;13.57;;;;;;;1.68;71.01;93351.78;5048692;28;20218;-74
2022/01/29 08:28:01;;;;;;;15.17;13.97;;;;;;;1.82;66.15;93347.38;5050100;28;20202;-75
2022/01/29 08:30:27;;;;;;;14.37;13.50;;;;;;;2.16;65.95;93361.59;5050646;28;20249;-76
2022/01/29 08:32:52;;;;;;;16.77;15.57;;;;;;;2.41;64.66;93354.66;5051166;28;20586;-76
2022/01/29 08:35:18;;;;;;;15.30;14.20;;;;;;;2.41;65.04;93359.81;5049809;28;20222;-75
2022/01/29 08:37:44;;;;;;;14.80;13.70;;;;;;;2.25;66.15;93358.56;5048565;28;20190;-76
2022/01/29 08:40:10;;;;;;;16.10;14.90;;;;;;;2.15;65.91;93362.59;5046188;28;20230;-76
2022/01/29 08:42:36;;;;;;;15.63;14.30;;;;;;;1.82;65.95;93356.88;5049030;28;20315;-74
2022/01/29 08:45:04;;;;;;;15.47;14.23;;;;;;;1.67;66.86;93365.66;5048740;28;20218;-74
2022/01/29 08:47:48;;;;;;;14.10;12.97;;;;;;;1.74;66.97;93369.97;5050941;28;20213;-74
2022/01/29 08:50:14;;;;;;;14.77;13.57;;;;;;;1.57;68.00;93364.53;5049969;28;20255;-74
2022/01/29 08:52:40;;;;;;;14.67;13.53;;;;;;;1.75;67.35;93363.81;5050111;28;20209;-75
2022/01/29 08:55:07;;;;;;;15.60;14.30;;;;;;;1.67;68.07;93360.50;5050170;28;20218;-75
2022/01/29 08:57:33;;;;;;;15.53;14.13;;;;;;;2.04;66.80;93366.59;5050661;28;20198;-75
2022/01/29 08:59:59;;;;;;;14.90;13.70;;;;;;;1.61;67.62;93361.34;5050655;28;20236;-76
2022/01/29 09:02:25;;;;;;;14.93;13.73;;;;;;;1.64;67.44;93376.34;5049376;28;20221;-77
2022/01/29 09:04:52;;;;;;;15.90;14.37;;;;;;;1.17;69.20;93361.31;5048369;28;20213;-77
2022/01/29 09:07:18;;;;;;;16.27;14.70;;;;;;;1.57;68.66;93365.28;5049725;28;20193;-78
2022/01/29 09:09:45;;;;;;;16.67;15.20;;;;;;;1.58;68.00;93368.66;5048574;28;20226;-76
2022/01/29 09:12:12;;;;;;;12.57;11.57;;;;;;;1.88;72.33;93380.00;5049371;28;20229;-75
2022/01/29 09:14:38;;;;;;;13.90;12.80;;;;;;;2.09;67.43;93389.16;5049629;28;20244;-79
2022/01/29 09:17:04;;;;;;;14.90;13.70;;;;;;;1.97;67.29;93377.94;5050149;28;20198;-82
2022/01/29 09:19:29;;;;;;;14.73;13.43;;;;;;;2.51;66.50;93388.47;5049538;28;20290;-80
2022/01/29 09:21:55;;;;;;;13.63;12.73;;;;;;;2.29;67.65;93389.84;5049128;28;20224;-81
2022/01/29 09:24:20;;;;;;;13.57;12.83;;;;;;;2.19;65.89;93376.63;5048681;28;20222;-77
2022/01/29 09:26:46;;;;;;;14.97;13.73;;;;;;;2.31;66.10;93382.66;5049694;28;20202;-74
2022/01/29 09:29:11;;;;;;;14.67;13.57;;;;;;;2.41;66.54;93388.16;5046279;28;20237;-77
2022/01/29 09:31:37;;;;;;;13.47;12.50;;;;;;;2.41;66.47;93386.34;5049645;28;20190;-75
2022/01/29 09:34:02;;;;;;;14.23;13.07;;;;;;;2.32;66.61;93384.25;5048012;28;20707;-75
2022/01/29 09:36:28;;;;;;;16.50;14.93;;;;;;;2.51;64.96;93360.91;5048235;28;20277;-75
2022/01/29 09:38:54;;;;;;;16.53;14.90;;;;;;;2.46;66.53;93359.97;5046155;28;20230;-74
2022/01/29 09:41:24;;;;;;;17.33;15.63;;;;;;;2.86;65.23;93356.03;5046378;28;20257;-75
2022/01/29 09:43:51;;;;;;;15.50;14.30;;;;;;;2.58;65.11;93359.09;5048976;28;20186;-75
2022/01/29 09:46:17;;;;;;;17.57;16.00;;;;;;;3.04;64.59;93379.25;5047936;28;20247;-76
2022/01/29 09:48:44;;;;;;;16.33;14.70;;;;;;;2.71;64.45;93363.31;5047548;28;20210;-75
2022/01/29 09:51:14;;;;;;;14.50;13.60;;;;;;;2.33;66.14;93386.63;5048449;28;20253;-75
2022/01/29 09:53:42;;;;;;;16.80;14.97;;;;;;;2.72;66.24;93390.66;5048191;28;20269;-75
2022/01/29 09:56:08;;;;;;;16.50;15.30;;;;;;;2.59;65.87;93380.47;5049568;28;20178;-78
2022/01/29 09:58:33;;;;;;;13.43;12.53;;;;;;;2.65;65.16;93369.31;5048300;28;20244;-79
2022/01/29 10:00:59;;;;;;;14.17;13.20;;;;;;;2.76;65.03;93392.63;5050978;28;20220;-76
2022/01/29 10:03:25;;;;;;;16.27;14.93;;;;;;;2.72;64.81;93380.38;5049087;28;20225;-75
2022/01/29 10:05:53;;;;;;;15.40;14.20;;;;;;;3.00;63.85;93389.19;5049427;28;20234;-75
2022/01/29 10:08:19;;;;;;;15.00;13.83;;;;;;;2.61;64.96;93357.84;5048522;28;20194;-77
2022/01/29 10:11:17;;;;;;;16.47;15.27;;;;;;;3.16;63.71;93378.31;5048665;28;20241;-75
2022/01/29 10:13:43;;;;;;;15.83;14.73;;;;;;;2.58;63.32;93346.19;5048698;28;20191;-79
2022/01/29 10:16:25;;;;;;;16.47;15.13;;;;;;;2.85;65.31;93380.22;5044960;28;20246;-76
2022/01/29 10:18:59;;;;;;;15.57;14.27;;;;;;;2.71;64.54;93378.78;5046363;28;20265;-78
2022/01/29 10:21:32;;;;;;;14.57;13.47;;;;;;;3.18;62.78;93378.13;5047198;28;20230;-77
2022/01/29 10:24:18;;;;;;;13.57;12.67;;;;;;;2.82;62.81;93375.50;5047034;28;20222;-76
2022/01/29 10:26:46;;;;;;;13.20;12.20;;;;;;;2.78;62.51;93349.38;5047246;28;20216;-75
2022/01/29 10:29:16;;;;;;;14.50;13.47;;;;;;;2.48;63.33;93373.41;5046415;28;20240;-76
2022/01/29 10:31:50;;;;;;;14.90;13.80;;;;;;;2.51;64.35;93362.69;5045707;28;20270;-75
2022/01/29 10:34:21;;;;;;;16.17;14.87;;;;;;;2.06;66.37;93384.44;5046375;28;20222;-75
2022/01/29 10:37:13;;;;;;;15.10;13.90;;;;;;;2.13;66.94;93380.03;5047653;28;20254;-79
2022/01/29 10:39:40;;;;;;;15.63;14.50;;;;;;;2.20;67.76;93375.63;5047406;28;20245;-76
2022/01/29 10:42:29;;;;;;;17.37;15.67;;;;;;;2.07;67.39;93388.59;5061267;28;20199;-77
2022/01/29 10:44:56;;;;;;;19.03;17.23;;;;;;;2.20;71.11;93375.63;5047048;28;20237;-77
2022/01/29 10:47:23;;;;;;;16.50;15.00;;;;;;;1.87;67.13;93357.03;5045193;28;20190;-76
2022/01/29 10:49:51;;;;;;;17.33;15.93;;;;;;;2.13;67.52;93382.59;5045180;28;20236;-78
2022/01/29 10:52:17;;;;;;;16.43;15.03;;;;;;;2.04;67.16;93366.59;5046417;28;20189;-77
2022/01/29 10:54:46;;;;;;;17.70;16.10;;;;;;;2.17;67.76;93381.97;5064159;28;20222;-76
2022/01/29 10:57:16;;;;;;;16.10;14.73;;;;;;;2.16;67.24;93372.69;5047963;28;20221;-77
2022/01/29 10:59:49;;;;;;;16.47;15.17;;;;;;;2.06;68.65;93389.56;5047880;28;20226;-75
2022/01/29 11:02:16;;;;;;;15.50;14.40;;;;;;;1.97;68.48;93389.03;5047858;28;20216;-79
2022/01/29 11:04:43;;;;;;;16.00;14.70;;;;;;;1.64;69.78;93389.22;5048952;28;20236;-77
2022/01/29 11:07:19;;;;;;;15.20;14.17;;;;;;;1.51;69.48;93360.97;5047532;28;20193;-77
2022/01/29 11:09:51;;;;;;;18.67;16.77;;;;;;;1.75;68.94;93367.19;5047072;28;20255;-77
2022/01/29 11:12:19;;;;;;;18.77;16.77;;;;;;;1.80;69.34;93384.59;5046496;28;20197;-77
2022/01/29 11:14:45;;;;;;;17.80;16.10;;;;;;;1.80;69.99;93380.25;5046624;28;20217;-76
2022/01/29 11:17:12;;;;;;;16.57;15.13;;;;;;;1.94;69.75;93368.88;5045865;28;20190;-77
2022/01/29 11:19:39;;;;;;;15.57;14.13;;;;;;;2.21;68.58;93357.38;5047900;28;20248;-76
2022/01/29 11:22:07;;;;;;;17.83;16.23;;;;;;;2.33;68.41;93372.94;5045540;28;20178;-76
2022/01/29 11:24:35;;;;;;;16.67;15.33;;;;;;;2.31;66.46;93356.91;5047239;28;20233;-75
2022/01/29 11:27:02;;;;;;;17.10;15.37;;;;;;;2.23;67.44;93360.53;5045601;28;20213;-76
2022/01/29 11:29:35;;;;;;;16.93;15.30;;;;;;;2.38;67.05;93324.94;5047691;28;20240;-90
2022/01/29 11:32:23;;;;;;;16.63;15.00;;;;;;;2.76;64.96;93366.03;5047884;28;20209;-78
2022/01/29 11:34:58;;;;;;;18.27;16.47;;;;;;;3.08;67.34;93370.09;5045547;28;20293;-72